Mixed with few cirrus with some thunderstorm clouds possible
Mixed with some thunderstorm clouds possible
Mixed with some thunderstorm clouds possible
Light rain, thunderstorms likely
Light rain, thunderstorms likely
Clear with few low clouds
Clear with few low clouds
(°C)
28°
28°
27°
27°
27°
27°
26°
26°
26°
26°
25°
25°
25°
25°
(°C)
27°
27°
26°
26°
25°
25°
24°
SSE
SSE
SSE
SSE
SSE
SSE
SSE
(km/h)
22-39
19-36
18-35
18-35
19-37
21-39
22-41
(mm)
0
0
0
1.5
0.6
0
0
(%)
65
30
33
25
25
5
4

Sun elevation

/ 3.7°
sun-icon
UV 7
06:22
20:27
Full moon (176°)
21:02
06:07

METAR for Coppell (KDFW)

Time Conditions Temperature/
Dewpoint
Wind Visibility Weather Clouds Pressure Change Raw
VFR 26.1°C / 16.7°C 150º 11kt >10km 0.13mm precipitation Broken Clouds 6500ft
Overcast 12000ft
1004 - KDFW 240053Z 15011KT 10SM BKN065 OVC120 26/17 A2970 RMK AO2 RAE2358 TSE13 SLP049 TS DSIPTD P0000 T02610167
VFR 26.1°C / 16.7°C 150º 13kt Gust 20kt >10km 0.13mm precipitation Few Clouds 6000ft
Scattered Clouds 9500ft
Scattered Clouds 12000ft
Overcast 25000ft
- KDFW 240013Z 15013G20KT 10SM FEW060 SCT095 SCT120 OVC250 26/17 A2970 RMK AO2 RAE2358 TSE13 TS DSIPTD P0000 T02610167
VFR 26.1°C / 17.2°C 160º 14kt >10km Light Thunderstorm Rain 0.13mm precipitation Few Clouds 3000ft
Scattered Clouds 4500ft
Broken Clouds 9000ft
Overcast 13000ft
1005 - KDFW 232353Z 16014KT 10SM -TSRA FEW030 SCT045CB BKN090 OVC130 26/17 A2972 RMK AO2 RAB41 TSB48 SLP054 OCNL LTGICCG W TS W MOV E P0000 60000 T02610172 10333 20261 58013
VFR 28.9°C / 17.2°C 190º 16kt >10km - Few Clouds 5500ft
Few Clouds 18000ft
Scattered Clouds 25000ft
1005 - KDFW 232253Z 19016KT 10SM FEW055 FEW180 SCT250 29/17 A2973 RMK AO2 PK WND 21029/2209 SLP057 CB DSNT SE-SW MOV NE T02890172
VFR 30°C / 16.7°C 200º 21kt Gust 31kt >10km - Few Clouds 5500ft
Scattered Clouds 18000ft
Scattered Clouds 25000ft
1006 - KDFW 232153Z 20021G31KT 10SM FEW055 SCT180 SCT250 30/17 A2975 RMK AO2 PK WND 19031/2147 SLP066 CB DSNT SE-SW MOV NE T03000167
VFR 31.1°C / 17.2°C 200º 20kt Gust 27kt >10km - Few Clouds 5500ft
Scattered Clouds 18000ft
Scattered Clouds 25000ft
1006 - KDFW 232053Z 20020G27KT 10SM FEW055 SCT180 SCT250 31/17 A2976 RMK AO2 PK WND 20031/2015 SLP067 CB DSNT SE-SW MOV NE T03110172 58010
VFR 32.2°C / 16.7°C 190º 17kt Gust 24kt >10km - Few Clouds 5500ft
Few Clouds 12000ft
Broken Clouds 18000ft
Broken Clouds 25000ft
1006 - KDFW 231953Z 19017G24KT 10SM FEW055 FEW120 BKN180 BKN250 32/17 A2976 RMK AO2 PK WND 20031/1912 SLP069 T03220167
VFR 31.7°C / 21.7°C 190º 14kt Gust 18kt >10km - Few Clouds 300ft
Few Clouds 4100ft
Few Clouds 20000ft
Scattered Clouds 25000ft
1007 - KDFW 231853Z 19014G18KT 10SM FEW003 FEW041 FEW200 SCT250 32/22 A2979 RMK AO2 SLP077 FU FEW003 W T03170217
VFR 29.4°C / 22.8°C 150º 9kt Gust 14kt >10km - Few Clouds 2400ft
Few Clouds 6000ft
Scattered Clouds 12000ft
Scattered Clouds 20000ft
1007 - KDFW 231753Z 15009G14KT 10SM FEW024 FEW060 SCT120 SCT200 SCT250 29/23 A2979 RMK AO2 SLP078 T02940228 10300 20239 56016
VFR 29.4°C / 23.3°C 160º 11kt >10km - Few Clouds 2100ft
Scattered Clouds 18000ft
Broken Clouds 25000ft
1008 - KDFW 231653Z 16011KT 10SM FEW021 SCT180 BKN250 29/23 A2980 RMK AO2 SLP082 T02940233
MVFR 28.3°C / 23.3°C 150º 8kt >10km - Scattered Clouds 2100ft
Broken Clouds 2800ft
Broken Clouds 25000ft
- KDFW 231624Z 15008KT 10SM SCT021 BKN028 BKN250 28/23 A2981 RMK AO2 T02830233
VFR 27.8°C / 23.3°C 170º 12kt Gust 17kt >10km - Scattered Clouds 2200ft
Broken Clouds 3200ft
Broken Clouds 25000ft
1009 - KDFW 231553Z 17012G17KT 10SM SCT022 BKN032 BKN250 28/23 A2982 RMK AO2 SLP090 SCT V BKN T02780233
MVFR 26.1°C / 23.3°C 170º 7kt >10km - Broken Clouds 1900ft
Broken Clouds 2400ft
Overcast 3200ft
1009 - KDFW 231453Z 17007KT 10SM BKN019 BKN024 OVC032 26/23 A2984 RMK AO2 SLP095 T02610233 51013
MVFR 25.6°C / 23.3°C 180º 10kt >10km - Scattered Clouds 1400ft
Broken Clouds 2100ft
Overcast 2700ft
- KDFW 231405Z 18010KT 9SM SCT014 BKN021 OVC027 26/23 A2983 RMK AO2 T02560233
MVFR 25.6°C / 23.3°C 180º 8kt 8000m Mist Broken Clouds 1400ft
Overcast 2300ft
1009 - KDFW 231353Z 18008KT 5SM BR BKN014 OVC023 26/23 A2983 RMK AO2 SLP094 T02560233 $
MVFR 25°C / 23.3°C 160º 5kt 6400m Mist Broken Clouds 1200ft
Overcast 2000ft
- KDFW 231319Z 16005KT 4SM BR BKN012 OVC020 25/23 A2982 RMK AO2 T02500233 $
MVFR 24.4°C / 22.8°C 160º 7kt >10km - Broken Clouds 1300ft
Overcast 1800ft
- KDFW 231302Z 16007KT 8SM BKN013 OVC018 24/23 A2982 RMK AO2 T02440228 $
MVFR 24.4°C / 22.8°C 170º 6kt >10km - Broken Clouds 1600ft
Overcast 2200ft
1008 - KDFW 231253Z 17006KT 8SM BKN016 OVC022 24/23 A2981 RMK AO2 SLP088 T02440228 $
MVFR 24.4°C / 22.8°C 170º 5kt >10km - Broken Clouds 1500ft
Overcast 2200ft
- KDFW 231223Z 17005KT 8SM BKN015 OVC022 24/23 A2980 RMK AO2 T02440228 $
MVFR 23.9°C / 22.8°C 170º 8kt >10km - Broken Clouds 1000ft
Overcast 2300ft
1008 - KDFW 231153Z 17008KT 8SM BKN010 OVC023 24/23 A2980 RMK AO2 SLP082 70002 T02390228 10239 20217 53005 $
MVFR 23.9°C / 22.2°C 180º 8kt >10km - Broken Clouds 1100ft
Overcast 2500ft
1008 - KDFW 231053Z 18008KT 10SM BKN011 OVC025 24/22 A2980 RMK AO2 SLP083 T02390222 $
MVFR 23.3°C / 22.2°C 180º 16kt >10km - Broken Clouds 1000ft
Broken Clouds 1400ft
Overcast 2500ft
1007 - KDFW 230953Z 18016KT 9SM BKN010 BKN014 OVC025 23/22 A2977 RMK AO2 SLP074 T02330222 $
MVFR 22.2°C / 20.6°C 190º 9kt >10km - Broken Clouds 1200ft - KDFW 230856Z 19009KT 10SM BKN012 22/21 A2978 RMK AO2 T02220206 $
VFR 21.7°C / 20.6°C 190º 5kt >10km - Few Clouds 3700ft 1007 - KDFW 230753Z 19005KT 10SM FEW037 22/21 A2979 RMK AO2 SLP079 T02170206 $

VFR

26.1°C / 16.7°C

[More]
Wind 150º 11kt
Visibility >10km
Weather 0.13mm precipitation
Clouds Broken Clouds 6500ft
Overcast 12000ft
Pressure 1004
Change -
Raw KDFW 240053Z 15011KT 10SM BKN065 OVC120 26/17 A2970 RMK AO2 RAE2358 TSE13 SLP049 TS DSIPTD P0000 T02610167

VFR

26.1°C / 16.7°C

[More]
Wind 150º 13kt Gust 20kt
Visibility >10km
Weather 0.13mm precipitation
Clouds Few Clouds 6000ft
Scattered Clouds 9500ft
Scattered Clouds 12000ft
Overcast 25000ft
Pressure
Change -
Raw KDFW 240013Z 15013G20KT 10SM FEW060 SCT095 SCT120 OVC250 26/17 A2970 RMK AO2 RAE2358 TSE13 TS DSIPTD P0000 T02610167

VFR

26.1°C / 17.2°C

[More]
Wind 160º 14kt
Visibility >10km
Weather Light Thunderstorm Rain 0.13mm precipitation
Clouds Few Clouds 3000ft
Scattered Clouds 4500ft
Broken Clouds 9000ft
Overcast 13000ft
Pressure 1005
Change -
Raw KDFW 232353Z 16014KT 10SM -TSRA FEW030 SCT045CB BKN090 OVC130 26/17 A2972 RMK AO2 RAB41 TSB48 SLP054 OCNL LTGICCG W TS W MOV E P0000 60000 T02610172 10333 20261 58013

VFR

28.9°C / 17.2°C

[More]
Wind 190º 16kt
Visibility >10km
Weather -
Clouds Few Clouds 5500ft
Few Clouds 18000ft
Scattered Clouds 25000ft
Pressure 1005
Change -
Raw KDFW 232253Z 19016KT 10SM FEW055 FEW180 SCT250 29/17 A2973 RMK AO2 PK WND 21029/2209 SLP057 CB DSNT SE-SW MOV NE T02890172

VFR

30°C / 16.7°C

[More]
Wind 200º 21kt Gust 31kt
Visibility >10km
Weather -
Clouds Few Clouds 5500ft
Scattered Clouds 18000ft
Scattered Clouds 25000ft
Pressure 1006
Change -
Raw KDFW 232153Z 20021G31KT 10SM FEW055 SCT180 SCT250 30/17 A2975 RMK AO2 PK WND 19031/2147 SLP066 CB DSNT SE-SW MOV NE T03000167

VFR

31.1°C / 17.2°C

[More]
Wind 200º 20kt Gust 27kt
Visibility >10km
Weather -
Clouds Few Clouds 5500ft
Scattered Clouds 18000ft
Scattered Clouds 25000ft
Pressure 1006
Change -
Raw KDFW 232053Z 20020G27KT 10SM FEW055 SCT180 SCT250 31/17 A2976 RMK AO2 PK WND 20031/2015 SLP067 CB DSNT SE-SW MOV NE T03110172 58010

VFR

32.2°C / 16.7°C

[More]
Wind 190º 17kt Gust 24kt
Visibility >10km
Weather -
Clouds Few Clouds 5500ft
Few Clouds 12000ft
Broken Clouds 18000ft
Broken Clouds 25000ft
Pressure 1006
Change -
Raw KDFW 231953Z 19017G24KT 10SM FEW055 FEW120 BKN180 BKN250 32/17 A2976 RMK AO2 PK WND 20031/1912 SLP069 T03220167

VFR

31.7°C / 21.7°C

[More]
Wind 190º 14kt Gust 18kt
Visibility >10km
Weather -
Clouds Few Clouds 300ft
Few Clouds 4100ft
Few Clouds 20000ft
Scattered Clouds 25000ft
Pressure 1007
Change -
Raw KDFW 231853Z 19014G18KT 10SM FEW003 FEW041 FEW200 SCT250 32/22 A2979 RMK AO2 SLP077 FU FEW003 W T03170217

VFR

29.4°C / 22.8°C

[More]
Wind 150º 9kt Gust 14kt
Visibility >10km
Weather -
Clouds Few Clouds 2400ft
Few Clouds 6000ft
Scattered Clouds 12000ft
Scattered Clouds 20000ft
Pressure 1007
Change -
Raw KDFW 231753Z 15009G14KT 10SM FEW024 FEW060 SCT120 SCT200 SCT250 29/23 A2979 RMK AO2 SLP078 T02940228 10300 20239 56016

VFR

29.4°C / 23.3°C

[More]
Wind 160º 11kt
Visibility >10km
Weather -
Clouds Few Clouds 2100ft
Scattered Clouds 18000ft
Broken Clouds 25000ft
Pressure 1008
Change -
Raw KDFW 231653Z 16011KT 10SM FEW021 SCT180 BKN250 29/23 A2980 RMK AO2 SLP082 T02940233

MVFR

28.3°C / 23.3°C

[More]
Wind 150º 8kt
Visibility >10km
Weather -
Clouds Scattered Clouds 2100ft
Broken Clouds 2800ft
Broken Clouds 25000ft
Pressure
Change -
Raw KDFW 231624Z 15008KT 10SM SCT021 BKN028 BKN250 28/23 A2981 RMK AO2 T02830233

VFR

27.8°C / 23.3°C

[More]
Wind 170º 12kt Gust 17kt
Visibility >10km
Weather -
Clouds Scattered Clouds 2200ft
Broken Clouds 3200ft
Broken Clouds 25000ft
Pressure 1009
Change -
Raw KDFW 231553Z 17012G17KT 10SM SCT022 BKN032 BKN250 28/23 A2982 RMK AO2 SLP090 SCT V BKN T02780233

MVFR

26.1°C / 23.3°C

[More]
Wind 170º 7kt
Visibility >10km
Weather -
Clouds Broken Clouds 1900ft
Broken Clouds 2400ft
Overcast 3200ft
Pressure 1009
Change -
Raw KDFW 231453Z 17007KT 10SM BKN019 BKN024 OVC032 26/23 A2984 RMK AO2 SLP095 T02610233 51013

MVFR

25.6°C / 23.3°C

[More]
Wind 180º 10kt
Visibility >10km
Weather -
Clouds Scattered Clouds 1400ft
Broken Clouds 2100ft
Overcast 2700ft
Pressure
Change -
Raw KDFW 231405Z 18010KT 9SM SCT014 BKN021 OVC027 26/23 A2983 RMK AO2 T02560233

MVFR

25.6°C / 23.3°C

[More]
Wind 180º 8kt
Visibility 8000m
Weather Mist
Clouds Broken Clouds 1400ft
Overcast 2300ft
Pressure 1009
Change -
Raw KDFW 231353Z 18008KT 5SM BR BKN014 OVC023 26/23 A2983 RMK AO2 SLP094 T02560233 $

MVFR

25°C / 23.3°C

[More]
Wind 160º 5kt
Visibility 6400m
Weather Mist
Clouds Broken Clouds 1200ft
Overcast 2000ft
Pressure
Change -
Raw KDFW 231319Z 16005KT 4SM BR BKN012 OVC020 25/23 A2982 RMK AO2 T02500233 $

MVFR

24.4°C / 22.8°C

[More]
Wind 160º 7kt
Visibility >10km
Weather -
Clouds Broken Clouds 1300ft
Overcast 1800ft
Pressure
Change -
Raw KDFW 231302Z 16007KT 8SM BKN013 OVC018 24/23 A2982 RMK AO2 T02440228 $

MVFR

24.4°C / 22.8°C

[More]
Wind 170º 6kt
Visibility >10km
Weather -
Clouds Broken Clouds 1600ft
Overcast 2200ft
Pressure 1008
Change -
Raw KDFW 231253Z 17006KT 8SM BKN016 OVC022 24/23 A2981 RMK AO2 SLP088 T02440228 $

MVFR

24.4°C / 22.8°C

[More]
Wind 170º 5kt
Visibility >10km
Weather -
Clouds Broken Clouds 1500ft
Overcast 2200ft
Pressure
Change -
Raw KDFW 231223Z 17005KT 8SM BKN015 OVC022 24/23 A2980 RMK AO2 T02440228 $

MVFR

23.9°C / 22.8°C

[More]
Wind 170º 8kt
Visibility >10km
Weather -
Clouds Broken Clouds 1000ft
Overcast 2300ft
Pressure 1008
Change -
Raw KDFW 231153Z 17008KT 8SM BKN010 OVC023 24/23 A2980 RMK AO2 SLP082 70002 T02390228 10239 20217 53005 $

MVFR

23.9°C / 22.2°C

[More]
Wind 180º 8kt
Visibility >10km
Weather -
Clouds Broken Clouds 1100ft
Overcast 2500ft
Pressure 1008
Change -
Raw KDFW 231053Z 18008KT 10SM BKN011 OVC025 24/22 A2980 RMK AO2 SLP083 T02390222 $

MVFR

23.3°C / 22.2°C

[More]
Wind 180º 16kt
Visibility >10km
Weather -
Clouds Broken Clouds 1000ft
Broken Clouds 1400ft
Overcast 2500ft
Pressure 1007
Change -
Raw KDFW 230953Z 18016KT 9SM BKN010 BKN014 OVC025 23/22 A2977 RMK AO2 SLP074 T02330222 $

MVFR

22.2°C / 20.6°C

[More]
Wind 190º 9kt
Visibility >10km
Weather -
Clouds Broken Clouds 1200ft
Pressure
Change -
Raw KDFW 230856Z 19009KT 10SM BKN012 22/21 A2978 RMK AO2 T02220206 $

VFR

21.7°C / 20.6°C

[More]
Wind 190º 5kt
Visibility >10km
Weather -
Clouds Few Clouds 3700ft
Pressure 1007
Change -
Raw KDFW 230753Z 19005KT 10SM FEW037 22/21 A2979 RMK AO2 SLP079 T02170206 $

TAF for Coppell (KDFW)

From till


From till Wind 180º 15kt. Visibility 9700m. in the Vicinity Thunderstorm . Broken Clouds 5000ft.
From till Wind 150º 13kt. Visibility 9700m. Scattered Clouds 5000ft. Broken Clouds 10000ft.
From till Wind 160º 14kt. Visibility 9700m. Broken Clouds 1900ft.
From till Wind 200º 15kt. Visibility 9700m. Scattered Clouds 4000ft.
From till Wind 220º 11kt. Visibility 9700m. in the Vicinity Thunderstorm . Broken Clouds 6000ft.
From till Wind 260º 11kt. Visibility 9700m. Few Clouds 8000ft. Scattered Clouds 25000ft.

Raw: KDFW 232323Z 2400/2506 18015KT P6SM VCTS BKN050CB FM240130 15013KT P6SM SCT050 BKN100 FM240800 16014KT P6SM BKN019 FM241700 20015KT P6SM SCT040 FM242200 22011KT P6SM VCTS BKN060CB FM250000 26011KT P6SM FEW080 SCT250

rainNOW: Rain nowcast for Coppell and surroundings (25km radius)

0.0 mm
0.0 mm
0.0 mm
0.0 mm
0.0 mm
0.0 mm
0.0 mm
0.0 mm
0.0 mm
0.0 mm
0.0 mm
0.0 mm

Radar and precipitation nowcast for Coppell

Drizzle
Light
Moderate
Heavy
Very Heavy
Hail

The location marker is placed on Coppell. This animation shows the precipitation radar for the selected time range, as well as a 1h forecast. Orange crosses indicate lightning. Data provided by nowcast.de (available in USA, Europe, Australia). Drizzle or light snow fall might be invisible for the radar. Precipitation intensity is colour coded, ranging from turquoise to red.

Current satellite images for Coppell, United States

The location marker is placed on Coppell. [More]

The real-time satellite image combines visible light during daytime with infrared radiation during nighttime. At night, the image is not dark as infrared radiation can detect temperature differences. Unfortunately, low clouds and fog are difficult to distinguish from ground temperatures and thus can be almost invisible during the night. Meteosat satellite images for Europe are updated in real-time every 5 minutes. GOES-16/GOES-17 (North & South America) and Himawari (Asia) images update every 10 minutes.

Precipitation is estimated from radar and satellites. Precipitation estimates from satellites are less accurate at night than during daytime.

© 2024 meteoblue, NOAA Satellites GOES-16 and EUMETSAT. Lightning data provided by nowcast.

Back to top
×
Hey there,
seems like you are using an ad blocker.

Advertising is essential to maintain our free website with unique detail and accuracy.

Please whitelist www.meteoblue.com on your ad blocker or consider buying one of our products:

Already have a subscription?
Then please login.